sensor_id;sensor_type;location;lat;lon;timestamp;P1;durP1;ratioP1;P2;durP2;ratioP2
36855;SDS011;22788;51.434;6.786;2023-12-07T00:01:59;11.93;;;8.40;;
36855;SDS011;22788;51.434;6.786;2023-12-07T00:04:25;12.33;;;9.07;;
36855;SDS011;22788;51.434;6.786;2023-12-07T00:06:51;10.83;;;7.87;;
36855;SDS011;22788;51.434;6.786;2023-12-07T00:09:17;12.10;;;8.07;;
36855;SDS011;22788;51.434;6.786;2023-12-07T00:11:43;9.70;;;8.10;;
36855;SDS011;22788;51.434;6.786;2023-12-07T00:14:08;10.13;;;7.90;;
36855;SDS011;22788;51.434;6.786;2023-12-07T00:16:34;10.47;;;8.03;;
36855;SDS011;22788;51.434;6.786;2023-12-07T00:19:02;12.37;;;8.27;;
36855;SDS011;22788;51.434;6.786;2023-12-07T00:21:28;10.77;;;8.37;;
36855;SDS011;22788;51.434;6.786;2023-12-07T00:23:53;12.33;;;8.53;;
36855;SDS011;22788;51.434;6.786;2023-12-07T00:26:19;13.13;;;9.53;;
36855;SDS011;22788;51.434;6.786;2023-12-07T00:28:45;9.03;;;7.40;;
36855;SDS011;22788;51.434;6.786;2023-12-07T00:31:11;10.70;;;7.60;;
36855;SDS011;22788;51.434;6.786;2023-12-07T00:33:37;9.83;;;7.67;;
36855;SDS011;22788;51.434;6.786;2023-12-07T00:36:05;12.13;;;8.80;;
36855;SDS011;22788;51.434;6.786;2023-12-07T00:38:31;12.43;;;8.03;;
36855;SDS011;22788;51.434;6.786;2023-12-07T00:40:57;11.70;;;7.73;;
36855;SDS011;22788;51.434;6.786;2023-12-07T00:43:23;12.57;;;8.40;;
36855;SDS011;22788;51.434;6.786;2023-12-07T00:45:49;11.93;;;8.17;;
36855;SDS011;22788;51.434;6.786;2023-12-07T00:48:14;11.87;;;8.30;;
36855;SDS011;22788;51.434;6.786;2023-12-07T00:50:40;13.30;;;8.67;;
36855;SDS011;22788;51.434;6.786;2023-12-07T00:53:08;9.83;;;7.80;;
36855;SDS011;22788;51.434;6.786;2023-12-07T00:55:34;12.70;;;8.67;;
36855;SDS011;22788;51.434;6.786;2023-12-07T00:58:00;12.77;;;8.23;;
36855;SDS011;22788;51.434;6.786;2023-12-07T01:00:25;11.53;;;8.20;;
36855;SDS011;22788;51.434;6.786;2023-12-07T01:02:51;12.53;;;8.57;;
36855;SDS011;22788;51.434;6.786;2023-12-07T01:05:17;10.13;;;8.03;;
36855;SDS011;22788;51.434;6.786;2023-12-07T01:07:43;11.20;;;8.23;;
36855;SDS011;22788;51.434;6.786;2023-12-07T01:10:11;12.27;;;8.60;;
36855;SDS011;22788;51.434;6.786;2023-12-07T01:12:37;12.47;;;9.47;;
36855;SDS011;22788;51.434;6.786;2023-12-07T01:15:03;10.70;;;8.37;;
36855;SDS011;22788;51.434;6.786;2023-12-07T01:17:29;11.27;;;8.57;;
36855;SDS011;22788;51.434;6.786;2023-12-07T01:19:55;12.83;;;9.40;;
36855;SDS011;22788;51.434;6.786;2023-12-07T01:22:21;11.40;;;8.53;;
36855;SDS011;22788;51.434;6.786;2023-12-07T01:24:47;11.23;;;8.50;;
36855;SDS011;22788;51.434;6.786;2023-12-07T01:27:14;13.90;;;9.57;;
36855;SDS011;22788;51.434;6.786;2023-12-07T01:29:40;11.73;;;8.57;;
36855;SDS011;22788;51.434;6.786;2023-12-07T01:32:06;11.50;;;8.47;;
36855;SDS011;22788;51.434;6.786;2023-12-07T01:34:32;12.67;;;8.77;;
36855;SDS011;22788;51.434;6.786;2023-12-07T01:36:58;11.87;;;8.93;;
36855;SDS011;22788;51.434;6.786;2023-12-07T01:39:24;11.77;;;8.83;;
36855;SDS011;22788;51.434;6.786;2023-12-07T01:41:50;14.60;;;9.70;;
36855;SDS011;22788;51.434;6.786;2023-12-07T01:44:18;12.77;;;9.07;;
36855;SDS011;22788;51.434;6.786;2023-12-07T01:46:44;12.30;;;9.67;;
36855;SDS011;22788;51.434;6.786;2023-12-07T01:49:10;14.50;;;9.50;;
36855;SDS011;22788;51.434;6.786;2023-12-07T01:51:36;12.27;;;9.07;;
36855;SDS011;22788;51.434;6.786;2023-12-07T01:54:02;12.03;;;9.37;;
36855;SDS011;22788;51.434;6.786;2023-12-07T01:56:29;12.67;;;9.63;;
36855;SDS011;22788;51.434;6.786;2023-12-07T01:58:55;13.70;;;9.77;;
36855;SDS011;22788;51.434;6.786;2023-12-07T02:01:23;13.87;;;9.33;;
36855;SDS011;22788;51.434;6.786;2023-12-07T02:03:49;12.63;;;8.93;;
36855;SDS011;22788;51.434;6.786;2023-12-07T02:06:15;13.40;;;10.20;;
36855;SDS011;22788;51.434;6.786;2023-12-07T02:08:41;13.20;;;9.53;;
36855;SDS011;22788;51.434;6.786;2023-12-07T02:11:07;13.10;;;9.73;;
36855;SDS011;22788;51.434;6.786;2023-12-07T02:13:33;11.87;;;8.83;;
36855;SDS011;22788;51.434;6.786;2023-12-07T02:15:59;14.07;;;10.40;;
36855;SDS011;22788;51.434;6.786;2023-12-07T02:18:29;13.67;;;10.10;;
36855;SDS011;22788;51.434;6.786;2023-12-07T02:20:58;14.07;;;9.20;;
36855;SDS011;22788;51.434;6.786;2023-12-07T02:23:27;14.03;;;9.87;;
36855;SDS011;22788;51.434;6.786;2023-12-07T02:25:54;18.07;;;11.37;;
36855;SDS011;22788;51.434;6.786;2023-12-07T02:28:21;14.20;;;9.80;;
36855;SDS011;22788;51.434;6.786;2023-12-07T02:30:47;14.47;;;10.17;;
36855;SDS011;22788;51.434;6.786;2023-12-07T02:33:13;13.10;;;9.50;;
36855;SDS011;22788;51.434;6.786;2023-12-07T02:35:39;14.47;;;10.03;;
36855;SDS011;22788;51.434;6.786;2023-12-07T02:38:05;13.13;;;9.60;;
36855;SDS011;22788;51.434;6.786;2023-12-07T02:40:31;14.37;;;10.60;;
36855;SDS011;22788;51.434;6.786;2023-12-07T02:42:58;12.17;;;9.73;;
36855;SDS011;22788;51.434;6.786;2023-12-07T02:45:26;13.73;;;9.77;;
36855;SDS011;22788;51.434;6.786;2023-12-07T02:47:52;15.80;;;10.60;;
36855;SDS011;22788;51.434;6.786;2023-12-07T02:50:18;16.27;;;10.57;;
36855;SDS011;22788;51.434;6.786;2023-12-07T02:52:44;14.77;;;10.27;;
36855;SDS011;22788;51.434;6.786;2023-12-07T02:55:10;15.20;;;10.77;;
36855;SDS011;22788;51.434;6.786;2023-12-07T02:57:36;13.83;;;9.53;;
36855;SDS011;22788;51.434;6.786;2023-12-07T03:00:02;15.73;;;9.47;;
36855;SDS011;22788;51.434;6.786;2023-12-07T03:02:30;15.30;;;10.17;;
36855;SDS011;22788;51.434;6.786;2023-12-07T03:04:56;14.63;;;10.20;;
36855;SDS011;22788;51.434;6.786;2023-12-07T03:07:22;14.20;;;9.90;;
36855;SDS011;22788;51.434;6.786;2023-12-07T03:09:48;15.47;;;10.67;;
36855;SDS011;22788;51.434;6.786;2023-12-07T03:12:14;15.10;;;10.27;;
36855;SDS011;22788;51.434;6.786;2023-12-07T03:14:39;13.97;;;10.53;;
36855;SDS011;22788;51.434;6.786;2023-12-07T03:17:05;14.00;;;9.73;;
36855;SDS011;22788;51.434;6.786;2023-12-07T03:19:33;15.47;;;10.57;;
36855;SDS011;22788;51.434;6.786;2023-12-07T03:22:03;17.00;;;10.60;;
36855;SDS011;22788;51.434;6.786;2023-12-07T03:24:29;14.47;;;10.33;;
36855;SDS011;22788;51.434;6.786;2023-12-07T03:26:55;17.20;;;11.57;;
36855;SDS011;22788;51.434;6.786;2023-12-07T03:29:21;15.30;;;10.63;;
36855;SDS011;22788;51.434;6.786;2023-12-07T03:31:47;14.17;;;9.97;;
36855;SDS011;22788;51.434;6.786;2023-12-07T03:34:13;18.07;;;10.50;;
36855;SDS011;22788;51.434;6.786;2023-12-07T03:36:40;14.60;;;10.00;;
36855;SDS011;22788;51.434;6.786;2023-12-07T03:39:06;15.37;;;10.43;;
36855;SDS011;22788;51.434;6.786;2023-12-07T03:41:32;17.03;;;11.27;;
36855;SDS011;22788;51.434;6.786;2023-12-07T03:43:58;16.07;;;11.00;;
36855;SDS011;22788;51.434;6.786;2023-12-07T03:46:24;16.57;;;11.70;;
36855;SDS011;22788;51.434;6.786;2023-12-07T03:48:50;16.93;;;11.00;;
36855;SDS011;22788;51.434;6.786;2023-12-07T03:51:16;16.27;;;10.90;;
36855;SDS011;22788;51.434;6.786;2023-12-07T03:53:43;20.27;;;11.67;;
36855;SDS011;22788;51.434;6.786;2023-12-07T03:56:09;17.43;;;11.20;;
36855;SDS011;22788;51.434;6.786;2023-12-07T03:58:35;15.97;;;11.27;;
36855;SDS011;22788;51.434;6.786;2023-12-07T04:01:01;16.90;;;11.00;;
36855;SDS011;22788;51.434;6.786;2023-12-07T04:03:27;15.87;;;10.73;;
36855;SDS011;22788;51.434;6.786;2023-12-07T04:05:53;16.47;;;11.27;;
36855;SDS011;22788;51.434;6.786;2023-12-07T04:08:19;19.53;;;12.63;;
36855;SDS011;22788;51.434;6.786;2023-12-07T04:10:46;14.47;;;10.70;;
36855;SDS011;22788;51.434;6.786;2023-12-07T04:13:12;16.53;;;11.63;;
36855;SDS011;22788;51.434;6.786;2023-12-07T04:15:38;17.00;;;11.70;;
36855;SDS011;22788;51.434;6.786;2023-12-07T04:18:04;17.60;;;11.43;;
36855;SDS011;22788;51.434;6.786;2023-12-07T04:20:30;16.27;;;10.43;;
36855;SDS011;22788;51.434;6.786;2023-12-07T04:22:56;17.27;;;11.00;;
36855;SDS011;22788;51.434;6.786;2023-12-07T04:25:21;17.10;;;10.77;;
36855;SDS011;22788;51.434;6.786;2023-12-07T04:27:49;17.17;;;10.80;;
36855;SDS011;22788;51.434;6.786;2023-12-07T04:30:15;14.17;;;10.47;;
36855;SDS011;22788;51.434;6.786;2023-12-07T04:32:41;17.60;;;12.20;;
36855;SDS011;22788;51.434;6.786;2023-12-07T04:35:07;16.60;;;10.97;;
36855;SDS011;22788;51.434;6.786;2023-12-07T04:37:33;18.27;;;12.23;;
36855;SDS011;22788;51.434;6.786;2023-12-07T04:39:58;17.30;;;11.50;;
36855;SDS011;22788;51.434;6.786;2023-12-07T04:42:24;18.40;;;11.30;;
36855;SDS011;22788;51.434;6.786;2023-12-07T04:44:52;18.17;;;11.90;;
36855;SDS011;22788;51.434;6.786;2023-12-07T04:47:18;17.60;;;11.50;;
36855;SDS011;22788;51.434;6.786;2023-12-07T04:49:43;16.77;;;11.83;;
36855;SDS011;22788;51.434;6.786;2023-12-07T04:52:09;17.83;;;12.00;;
36855;SDS011;22788;51.434;6.786;2023-12-07T04:54:35;17.17;;;11.43;;
36855;SDS011;22788;51.434;6.786;2023-12-07T04:57:01;16.83;;;11.17;;
36855;SDS011;22788;51.434;6.786;2023-12-07T04:59:27;15.63;;;11.13;;
36855;SDS011;22788;51.434;6.786;2023-12-07T05:01:55;17.43;;;10.70;;
36855;SDS011;22788;51.434;6.786;2023-12-07T05:04:21;19.53;;;12.10;;
36855;SDS011;22788;51.434;6.786;2023-12-07T05:06:47;18.97;;;11.47;;
36855;SDS011;22788;51.434;6.786;2023-12-07T05:09:12;20.33;;;12.23;;
36855;SDS011;22788;51.434;6.786;2023-12-07T05:11:39;18.50;;;12.17;;
36855;SDS011;22788;51.434;6.786;2023-12-07T05:14:05;19.03;;;12.10;;
36855;SDS011;22788;51.434;6.786;2023-12-07T05:16:31;18.03;;;11.90;;
36855;SDS011;22788;51.434;6.786;2023-12-07T05:18:58;19.30;;;11.93;;
36855;SDS011;22788;51.434;6.786;2023-12-07T05:21:24;17.17;;;11.43;;
36855;SDS011;22788;51.434;6.786;2023-12-07T05:23:50;17.33;;;11.83;;
36855;SDS011;22788;51.434;6.786;2023-12-07T05:26:16;18.20;;;11.37;;
36855;SDS011;22788;51.434;6.786;2023-12-07T05:28:42;17.07;;;11.23;;
36855;SDS011;22788;51.434;6.786;2023-12-07T05:31:08;19.03;;;11.90;;
36855;SDS011;22788;51.434;6.786;2023-12-07T05:33:34;17.27;;;11.83;;
36855;SDS011;22788;51.434;6.786;2023-12-07T05:36:01;16.50;;;10.93;;
36855;SDS011;22788;51.434;6.786;2023-12-07T05:38:27;15.73;;;10.93;;
36855;SDS011;22788;51.434;6.786;2023-12-07T05:40:53;17.03;;;11.50;;
36855;SDS011;22788;51.434;6.786;2023-12-07T05:43:19;16.57;;;11.33;;
36855;SDS011;22788;51.434;6.786;2023-12-07T05:45:45;18.23;;;11.67;;
36855;SDS011;22788;51.434;6.786;2023-12-07T05:48:11;15.40;;;11.10;;
36855;SDS011;22788;51.434;6.786;2023-12-07T05:50:37;17.40;;;11.70;;
36855;SDS011;22788;51.434;6.786;2023-12-07T05:53:04;21.50;;;11.73;;
36855;SDS011;22788;51.434;6.786;2023-12-07T05:55:30;17.17;;;10.93;;
36855;SDS011;22788;51.434;6.786;2023-12-07T05:57:56;15.80;;;11.17;;
36855;SDS011;22788;51.434;6.786;2023-12-07T06:00:22;19.67;;;11.90;;
36855;SDS011;22788;51.434;6.786;2023-12-07T06:02:48;19.20;;;11.90;;
36855;SDS011;22788;51.434;6.786;2023-12-07T06:05:14;19.40;;;12.17;;
36855;SDS011;22788;51.434;6.786;2023-12-07T06:07:40;17.90;;;12.07;;
36855;SDS011;22788;51.434;6.786;2023-12-07T06:10:08;18.63;;;11.67;;
36855;SDS011;22788;51.434;6.786;2023-12-07T06:12:34;15.20;;;11.00;;
36855;SDS011;22788;51.434;6.786;2023-12-07T06:15:00;15.93;;;11.13;;
36855;SDS011;22788;51.434;6.786;2023-12-07T06:17:26;18.33;;;11.67;;
36855;SDS011;22788;51.434;6.786;2023-12-07T06:19:52;17.73;;;11.37;;
36855;SDS011;22788;51.434;6.786;2023-12-07T06:22:18;18.23;;;10.97;;
36855;SDS011;22788;51.434;6.786;2023-12-07T06:24:44;20.43;;;11.77;;
36855;SDS011;22788;51.434;6.786;2023-12-07T06:27:11;17.53;;;11.73;;
36855;SDS011;22788;51.434;6.786;2023-12-07T06:29:37;17.23;;;12.03;;
36855;SDS011;22788;51.434;6.786;2023-12-07T06:32:03;23.00;;;12.03;;
36855;SDS011;22788;51.434;6.786;2023-12-07T06:34:29;16.60;;;11.97;;
36855;SDS011;22788;51.434;6.786;2023-12-07T06:36:55;17.53;;;10.80;;
36855;SDS011;22788;51.434;6.786;2023-12-07T06:39:21;20.23;;;10.83;;
36855;SDS011;22788;51.434;6.786;2023-12-07T06:41:47;15.60;;;11.23;;
36855;SDS011;22788;51.434;6.786;2023-12-07T06:44:14;17.77;;;10.77;;
36855;SDS011;22788;51.434;6.786;2023-12-07T06:46:40;20.53;;;11.43;;
36855;SDS011;22788;51.434;6.786;2023-12-07T06:49:06;18.17;;;11.57;;
36855;SDS011;22788;51.434;6.786;2023-12-07T06:51:32;23.80;;;12.80;;
36855;SDS011;22788;51.434;6.786;2023-12-07T06:53:58;18.33;;;11.73;;
36855;SDS011;22788;51.434;6.786;2023-12-07T06:56:24;17.43;;;10.87;;
36855;SDS011;22788;51.434;6.786;2023-12-07T06:58:50;18.17;;;11.90;;
36855;SDS011;22788;51.434;6.786;2023-12-07T07:01:17;17.03;;;10.53;;
36855;SDS011;22788;51.434;6.786;2023-12-07T07:03:43;17.47;;;10.50;;
36855;SDS011;22788;51.434;6.786;2023-12-07T07:06:09;18.27;;;12.17;;
36855;SDS011;22788;51.434;6.786;2023-12-07T07:08:35;16.67;;;11.10;;
36855;SDS011;22788;51.434;6.786;2023-12-07T07:11:01;16.00;;;10.90;;
36855;SDS011;22788;51.434;6.786;2023-12-07T07:13:27;17.07;;;11.23;;
36855;SDS011;22788;51.434;6.786;2023-12-07T07:15:52;15.20;;;10.73;;
36855;SDS011;22788;51.434;6.786;2023-12-07T07:18:20;15.63;;;10.80;;
36855;SDS011;22788;51.434;6.786;2023-12-07T07:20:46;16.17;;;10.10;;
36855;SDS011;22788;51.434;6.786;2023-12-07T07:23:12;17.07;;;10.47;;
36855;SDS011;22788;51.434;6.786;2023-12-07T07:25:37;18.03;;;11.37;;
36855;SDS011;22788;51.434;6.786;2023-12-07T07:28:03;16.63;;;11.07;;
36855;SDS011;22788;51.434;6.786;2023-12-07T07:30:29;17.33;;;10.73;;
36855;SDS011;22788;51.434;6.786;2023-12-07T07:32:55;21.20;;;10.77;;
36855;SDS011;22788;51.434;6.786;2023-12-07T07:35:23;17.77;;;11.70;;
36855;SDS011;22788;51.434;6.786;2023-12-07T07:37:48;14.73;;;10.30;;
36855;SDS011;22788;51.434;6.786;2023-12-07T07:40:14;17.50;;;10.93;;
36855;SDS011;22788;51.434;6.786;2023-12-07T07:42:40;19.03;;;11.03;;
36855;SDS011;22788;51.434;6.786;2023-12-07T07:45:07;15.53;;;10.57;;
36855;SDS011;22788;51.434;6.786;2023-12-07T07:47:33;17.27;;;11.23;;
36855;SDS011;22788;51.434;6.786;2023-12-07T07:49:59;15.67;;;10.50;;
36855;SDS011;22788;51.434;6.786;2023-12-07T07:52:26;20.57;;;12.20;;
36855;SDS011;22788;51.434;6.786;2023-12-07T07:54:52;17.33;;;10.60;;
36855;SDS011;22788;51.434;6.786;2023-12-07T07:57:18;15.13;;;11.07;;
36855;SDS011;22788;51.434;6.786;2023-12-07T07:59:44;17.70;;;11.50;;
36855;SDS011;22788;51.434;6.786;2023-12-07T08:02:10;20.43;;;11.80;;
36855;SDS011;22788;51.434;6.786;2023-12-07T08:04:36;17.87;;;11.17;;
36855;SDS011;22788;51.434;6.786;2023-12-07T08:07:02;20.73;;;11.10;;
36855;SDS011;22788;51.434;6.786;2023-12-07T08:09:30;18.07;;;10.80;;
36855;SDS011;22788;51.434;6.786;2023-12-07T08:11:56;21.03;;;11.67;;
36855;SDS011;22788;51.434;6.786;2023-12-07T08:14:21;18.30;;;11.70;;
36855;SDS011;22788;51.434;6.786;2023-12-07T08:16:47;18.37;;;10.90;;
36855;SDS011;22788;51.434;6.786;2023-12-07T08:19:13;17.67;;;11.60;;
36855;SDS011;22788;51.434;6.786;2023-12-07T08:21:39;21.10;;;14.35;;
36855;SDS011;22788;51.434;6.786;2023-12-07T08:24:05;17.67;;;11.47;;
36855;SDS011;22788;51.434;6.786;2023-12-07T08:26:32;16.93;;;11.40;;
36855;SDS011;22788;51.434;6.786;2023-12-07T08:28:58;15.83;;;10.57;;
36855;SDS011;22788;51.434;6.786;2023-12-07T08:31:24;18.43;;;11.53;;
36855;SDS011;22788;51.434;6.786;2023-12-07T08:33:50;18.97;;;12.27;;
36855;SDS011;22788;51.434;6.786;2023-12-07T08:36:16;17.67;;;11.37;;
36855;SDS011;22788;51.434;6.786;2023-12-07T08:38:42;17.47;;;11.00;;
36855;SDS011;22788;51.434;6.786;2023-12-07T08:41:08;19.83;;;11.87;;
36855;SDS011;22788;51.434;6.786;2023-12-07T08:43:36;16.97;;;11.03;;
36855;SDS011;22788;51.434;6.786;2023-12-07T08:46:02;15.83;;;10.73;;
36855;SDS011;22788;51.434;6.786;2023-12-07T08:48:27;16.63;;;10.37;;
36855;SDS011;22788;51.434;6.786;2023-12-07T08:50:53;20.27;;;11.80;;
36855;SDS011;22788;51.434;6.786;2023-12-07T08:53:19;15.97;;;11.00;;
36855;SDS011;22788;51.434;6.786;2023-12-07T08:55:45;15.60;;;9.77;;
36855;SDS011;22788;51.434;6.786;2023-12-07T08:58:11;14.73;;;10.60;;
36855;SDS011;22788;51.434;6.786;2023-12-07T09:00:39;18.10;;;10.73;;
36855;SDS011;22788;51.434;6.786;2023-12-07T09:03:04;16.57;;;10.37;;
36855;SDS011;22788;51.434;6.786;2023-12-07T09:05:30;16.43;;;10.67;;
36855;SDS011;22788;51.434;6.786;2023-12-07T09:07:56;16.50;;;11.13;;
36855;SDS011;22788;51.434;6.786;2023-12-07T09:10:22;15.27;;;10.83;;
36855;SDS011;22788;51.434;6.786;2023-12-07T09:12:48;15.60;;;9.67;;
36855;SDS011;22788;51.434;6.786;2023-12-07T09:15:13;15.57;;;9.93;;
36855;SDS011;22788;51.434;6.786;2023-12-07T10:18:41;13.00;;;8.50;;
36855;SDS011;22788;51.434;6.786;2023-12-07T10:21:07;11.10;;;8.47;;
36855;SDS011;22788;51.434;6.786;2023-12-07T10:23:33;12.37;;;8.87;;
36855;SDS011;22788;51.434;6.786;2023-12-07T10:25:59;13.87;;;9.00;;
36855;SDS011;22788;51.434;6.786;2023-12-07T10:28:25;12.00;;;8.03;;
36855;SDS011;22788;51.434;6.786;2023-12-07T10:30:51;12.80;;;8.70;;
36855;SDS011;22788;51.434;6.786;2023-12-07T10:33:18;11.73;;;8.77;;
36855;SDS011;22788;51.434;6.786;2023-12-07T10:35:46;12.33;;;8.57;;
36855;SDS011;22788;51.434;6.786;2023-12-07T10:38:12;15.40;;;8.83;;
36855;SDS011;22788;51.434;6.786;2023-12-07T10:40:38;11.73;;;8.60;;
36855;SDS011;22788;51.434;6.786;2023-12-07T10:43:05;10.77;;;8.13;;
36855;SDS011;22788;51.434;6.786;2023-12-07T10:45:31;11.87;;;8.27;;
36855;SDS011;22788;51.434;6.786;2023-12-07T10:47:57;11.97;;;8.37;;
36855;SDS011;22788;51.434;6.786;2023-12-07T10:50:27;13.80;;;8.60;;
36855;SDS011;22788;51.434;6.786;2023-12-07T10:52:55;14.27;;;7.67;;
36855;SDS011;22788;51.434;6.786;2023-12-07T10:55:25;13.50;;;7.73;;
36855;SDS011;22788;51.434;6.786;2023-12-07T10:57:53;11.73;;;8.07;;
36855;SDS011;22788;51.434;6.786;2023-12-07T11:00:20;12.13;;;7.87;;
36855;SDS011;22788;51.434;6.786;2023-12-07T11:02:46;12.97;;;7.77;;
36855;SDS011;22788;51.434;6.786;2023-12-07T11:05:13;13.17;;;8.70;;
36855;SDS011;22788;51.434;6.786;2023-12-07T11:07:41;14.33;;;8.63;;
36855;SDS011;22788;51.434;6.786;2023-12-07T11:10:11;10.87;;;7.87;;
36855;SDS011;22788;51.434;6.786;2023-12-07T11:12:40;10.60;;;7.50;;
36855;SDS011;22788;51.434;6.786;2023-12-07T11:15:09;11.07;;;7.63;;
36855;SDS011;22788;51.434;6.786;2023-12-07T11:20:18;11.43;;;8.03;;
36855;SDS011;22788;51.434;6.786;2023-12-07T11:22:44;12.93;;;7.77;;
36855;SDS011;22788;51.434;6.786;2023-12-07T11:25:11;16.00;;;7.83;;
36855;SDS011;22788;51.434;6.786;2023-12-07T11:27:37;12.73;;;8.27;;
36855;SDS011;22788;51.434;6.786;2023-12-07T11:30:04;13.10;;;8.40;;
36855;SDS011;22788;51.434;6.786;2023-12-07T11:32:30;13.07;;;8.17;;
36855;SDS011;22788;51.434;6.786;2023-12-07T11:35:03;13.97;;;7.53;;
36855;SDS011;22788;51.434;6.786;2023-12-07T11:37:59;10.77;;;7.27;;
36855;SDS011;22788;51.434;6.786;2023-12-07T11:40:22;9.40;;;6.83;;
36855;SDS011;22788;51.434;6.786;2023-12-07T11:42:49;13.47;;;7.87;;
36855;SDS011;22788;51.434;6.786;2023-12-07T11:45:15;12.20;;;7.70;;
36855;SDS011;22788;51.434;6.786;2023-12-07T11:47:41;13.13;;;8.43;;
36855;SDS011;22788;51.434;6.786;2023-12-07T11:50:07;11.40;;;7.10;;
36855;SDS011;22788;51.434;6.786;2023-12-07T11:52:33;10.63;;;7.67;;
36855;SDS011;22788;51.434;6.786;2023-12-07T11:54:59;12.97;;;8.43;;
36855;SDS011;22788;51.434;6.786;2023-12-07T11:57:26;11.23;;;7.20;;
36855;SDS011;22788;51.434;6.786;2023-12-07T11:59:52;10.47;;;6.80;;
36855;SDS011;22788;51.434;6.786;2023-12-07T12:02:18;10.60;;;7.37;;
36855;SDS011;22788;51.434;6.786;2023-12-07T12:04:44;9.70;;;6.77;;
36855;SDS011;22788;51.434;6.786;2023-12-07T12:07:10;11.13;;;7.30;;
36855;SDS011;22788;51.434;6.786;2023-12-07T12:09:36;11.67;;;7.50;;
36855;SDS011;22788;51.434;6.786;2023-12-07T12:12:02;9.63;;;6.80;;
36855;SDS011;22788;51.434;6.786;2023-12-07T12:14:30;12.93;;;7.37;;
36855;SDS011;22788;51.434;6.786;2023-12-07T12:16:56;9.03;;;6.63;;
36855;SDS011;22788;51.434;6.786;2023-12-07T12:19:22;9.73;;;7.40;;
36855;SDS011;22788;51.434;6.786;2023-12-07T12:21:48;11.33;;;7.00;;
36855;SDS011;22788;51.434;6.786;2023-12-07T12:24:14;10.17;;;7.17;;
36855;SDS011;22788;51.434;6.786;2023-12-07T12:26:41;10.40;;;7.23;;
36855;SDS011;22788;51.434;6.786;2023-12-07T12:29:07;14.73;;;7.90;;
36855;SDS011;22788;51.434;6.786;2023-12-07T12:31:35;12.00;;;7.30;;
36855;SDS011;22788;51.434;6.786;2023-12-07T12:34:01;11.23;;;7.13;;
36855;SDS011;22788;51.434;6.786;2023-12-07T12:36:27;12.13;;;7.57;;
36855;SDS011;22788;51.434;6.786;2023-12-07T12:38:53;8.47;;;6.57;;
36855;SDS011;22788;51.434;6.786;2023-12-07T12:41:19;11.80;;;6.80;;
36855;SDS011;22788;51.434;6.786;2023-12-07T12:43:45;8.97;;;6.73;;
36855;SDS011;22788;51.434;6.786;2023-12-07T12:46:11;10.97;;;7.00;;
36855;SDS011;22788;51.434;6.786;2023-12-07T12:48:40;10.70;;;7.67;;
36855;SDS011;22788;51.434;6.786;2023-12-07T12:51:17;10.10;;;7.60;;
36855;SDS011;22788;51.434;6.786;2023-12-07T12:53:44;8.40;;;6.57;;
36855;SDS011;22788;51.434;6.786;2023-12-07T12:56:10;11.77;;;7.27;;
36855;SDS011;22788;51.434;6.786;2023-12-07T12:58:36;11.13;;;7.40;;
36855;SDS011;22788;51.434;6.786;2023-12-07T13:01:02;13.23;;;7.63;;
36855;SDS011;22788;51.434;6.786;2023-12-07T13:03:28;10.90;;;6.60;;
36855;SDS011;22788;51.434;6.786;2023-12-07T13:05:55;11.63;;;6.83;;
36855;SDS011;22788;51.434;6.786;2023-12-07T13:08:21;8.93;;;6.93;;
36855;SDS011;22788;51.434;6.786;2023-12-07T13:10:47;9.10;;;5.87;;
36855;SDS011;22788;51.434;6.786;2023-12-07T13:13:13;9.37;;;6.40;;
36855;SDS011;22788;51.434;6.786;2023-12-07T13:15:39;8.33;;;6.50;;
36855;SDS011;22788;51.434;6.786;2023-12-07T13:18:05;9.77;;;6.40;;
36855;SDS011;22788;51.434;6.786;2023-12-07T13:20:31;10.23;;;6.33;;
36855;SDS011;22788;51.434;6.786;2023-12-07T13:22:59;9.67;;;6.47;;
36855;SDS011;22788;51.434;6.786;2023-12-07T13:25:24;10.53;;;6.47;;
36855;SDS011;22788;51.434;6.786;2023-12-07T13:27:50;8.87;;;6.67;;
36855;SDS011;22788;51.434;6.786;2023-12-07T13:30:16;9.23;;;6.30;;
36855;SDS011;22788;51.434;6.786;2023-12-07T13:32:42;10.33;;;6.83;;
36855;SDS011;22788;51.434;6.786;2023-12-07T13:35:08;9.90;;;6.50;;
36855;SDS011;22788;51.434;6.786;2023-12-07T13:37:34;9.03;;;6.77;;
36855;SDS011;22788;51.434;6.786;2023-12-07T13:40:01;7.83;;;5.73;;
36855;SDS011;22788;51.434;6.786;2023-12-07T13:42:27;9.00;;;6.10;;
36855;SDS011;22788;51.434;6.786;2023-12-07T13:44:54;10.37;;;6.03;;
36855;SDS011;22788;51.434;6.786;2023-12-07T13:47:20;10.17;;;6.83;;
36855;SDS011;22788;51.434;6.786;2023-12-07T13:49:46;8.47;;;5.93;;
36855;SDS011;22788;51.434;6.786;2023-12-07T13:52:12;8.63;;;5.70;;
36855;SDS011;22788;51.434;6.786;2023-12-07T13:54:38;9.10;;;6.30;;
36855;SDS011;22788;51.434;6.786;2023-12-07T13:57:05;9.33;;;6.47;;
36855;SDS011;22788;51.434;6.786;2023-12-07T13:59:31;8.27;;;6.10;;
36855;SDS011;22788;51.434;6.786;2023-12-07T14:01:57;8.17;;;6.10;;
36855;SDS011;22788;51.434;6.786;2023-12-07T14:04:23;9.77;;;5.90;;
36855;SDS011;22788;51.434;6.786;2023-12-07T14:06:49;7.10;;;5.60;;
36855;SDS011;22788;51.434;6.786;2023-12-07T14:09:15;8.03;;;5.63;;
36855;SDS011;22788;51.434;6.786;2023-12-07T14:11:41;7.23;;;5.40;;
36855;SDS011;22788;51.434;6.786;2023-12-07T14:14:08;8.23;;;5.20;;
36855;SDS011;22788;51.434;6.786;2023-12-07T14:16:34;8.70;;;5.60;;
36855;SDS011;22788;51.434;6.786;2023-12-07T14:19:00;8.93;;;5.73;;
36855;SDS011;22788;51.434;6.786;2023-12-07T14:21:26;9.27;;;5.57;;
36855;SDS011;22788;51.434;6.786;2023-12-07T14:23:52;8.57;;;5.87;;
36855;SDS011;22788;51.434;6.786;2023-12-07T14:26:18;9.13;;;5.67;;
36855;SDS011;22788;51.434;6.786;2023-12-07T14:28:44;7.43;;;5.20;;
36855;SDS011;22788;51.434;6.786;2023-12-07T14:31:11;9.97;;;5.57;;
36855;SDS011;22788;51.434;6.786;2023-12-07T14:33:37;7.83;;;5.67;;
36855;SDS011;22788;51.434;6.786;2023-12-07T14:36:03;7.93;;;5.23;;
36855;SDS011;22788;51.434;6.786;2023-12-07T14:38:29;7.93;;;5.47;;
36855;SDS011;22788;51.434;6.786;2023-12-07T14:40:55;7.40;;;5.43;;
36855;SDS011;22788;51.434;6.786;2023-12-07T14:43:21;7.67;;;5.40;;
36855;SDS011;22788;51.434;6.786;2023-12-07T14:45:47;8.83;;;5.63;;
36855;SDS011;22788;51.434;6.786;2023-12-07T14:48:14;8.60;;;5.83;;
36855;SDS011;22788;51.434;6.786;2023-12-07T14:50:40;7.10;;;4.83;;
36855;SDS011;22788;51.434;6.786;2023-12-07T14:53:06;8.10;;;4.93;;
36855;SDS011;22788;51.434;6.786;2023-12-07T14:55:32;8.90;;;5.20;;
36855;SDS011;22788;51.434;6.786;2023-12-07T14:57:58;6.60;;;5.00;;
36855;SDS011;22788;51.434;6.786;2023-12-07T15:00:24;8.53;;;4.87;;
36855;SDS011;22788;51.434;6.786;2023-12-07T15:02:50;7.57;;;5.10;;
36855;SDS011;22788;51.434;6.786;2023-12-07T15:05:17;6.83;;;5.23;;
36855;SDS011;22788;51.434;6.786;2023-12-07T15:07:43;8.00;;;5.10;;
36855;SDS011;22788;51.434;6.786;2023-12-07T15:10:09;5.20;;;4.50;;
36855;SDS011;22788;51.434;6.786;2023-12-07T15:12:35;7.40;;;5.60;;
36855;SDS011;22788;51.434;6.786;2023-12-07T15:15:01;7.77;;;5.43;;
36855;SDS011;22788;51.434;6.786;2023-12-07T15:17:27;6.13;;;5.30;;
36855;SDS011;22788;51.434;6.786;2023-12-07T15:19:53;6.37;;;4.83;;
36855;SDS011;22788;51.434;6.786;2023-12-07T15:22:20;5.60;;;4.50;;
36855;SDS011;22788;51.434;6.786;2023-12-07T15:24:46;8.43;;;5.10;;
36855;SDS011;22788;51.434;6.786;2023-12-07T15:27:12;7.83;;;5.17;;
36855;SDS011;22788;51.434;6.786;2023-12-07T15:29:38;7.67;;;4.80;;